Time;durP1;ratioP1;P1;durP2;ratioP2;P2;SDS_P1;SDS_P2;PMS_P1;PMS_P2;Temp;Humidity;BMP_temperature;BMP_pressure;BME280_temperature;BME280_humidity;BME280_pressure;Samples;Min_cycle;Max_cycle;Signal;HPM_P1;HPM_P2
2023/08/02 00:01:02;;;;;;;2.97;1.63;;;15.20;99.90;;;;;;4985916;28;20073;-45
2023/08/02 00:03:28;;;;;;;5.55;1.70;;;15.20;99.90;;;;;;4985409;28;20046;-46
2023/08/02 00:05:55;;;;;;;4.45;1.35;;;15.00;99.90;;;;;;4984090;28;20529;-45
2023/08/02 00:08:22;;;;;;;3.08;1.40;;;15.00;99.90;;;;;;4985279;28;20128;-45
2023/08/02 00:10:48;;;;;;;3.33;1.40;;;14.90;99.90;;;;;;4985026;28;20331;-45
2023/08/02 00:13:14;;;;;;;3.40;1.55;;;15.10;99.90;;;;;;4984941;28;20038;-45
2023/08/02 00:15:40;;;;;;;5.68;1.73;;;15.10;99.90;;;;;;4984976;28;20049;-45
2023/08/02 00:18:06;;;;;;;4.72;1.70;;;15.10;99.90;;;;;;4985365;28;20051;-45
2023/08/02 00:20:32;;;;;;;5.53;1.60;;;15.00;99.90;;;;;;4985464;28;20129;-45
2023/08/02 00:22:57;;;;;;;4.25;1.92;;;15.10;99.90;;;;;;4984319;28;20121;-46
2023/08/02 00:25:23;;;;;;;5.93;1.70;;;15.10;99.90;;;;;;4984964;28;20053;-45
2023/08/02 00:27:49;;;;;;;5.30;1.80;;;15.10;99.90;;;;;;4984586;28;20409;-45
2023/08/02 00:30:15;;;;;;;3.88;1.35;;;15.10;99.90;;;;;;4984551;28;20049;-46
2023/08/02 00:32:45;;;;;;;2.42;1.42;;;15.20;99.90;;;;;;4979312;28;20142;-45
2023/08/02 00:35:10;;;;;;;5.45;2.00;;;15.10;99.90;;;;;;4972828;28;20522;-45
2023/08/02 00:37:36;;;;;;;7.35;2.00;;;15.10;99.90;;;;;;4964158;28;20078;-46
2023/08/02 00:40:02;;;;;;;10.65;2.72;;;15.40;99.90;;;;;;4965965;28;20047;-47
2023/08/02 00:42:28;;;;;;;8.88;2.47;;;15.10;99.90;;;;;;4965294;28;20395;-45
2023/08/02 00:44:54;;;;;;;10.98;2.72;;;15.10;99.90;;;;;;4975970;28;20045;-45
2023/08/02 00:47:19;;;;;;;8.52;2.58;;;15.00;99.90;;;;;;4964979;28;20126;-45
2023/08/02 00:49:45;;;;;;;6.80;2.67;;;15.30;99.90;;;;;;4965447;28;20541;-45
2023/08/02 00:52:11;;;;;;;3.50;2.03;;;15.00;99.90;;;;;;4964465;28;20043;-45
2023/08/02 00:54:39;;;;;;;7.93;1.98;;;15.10;99.90;;;;;;4964616;28;20109;-45
2023/08/02 00:57:05;;;;;;;4.45;2.13;;;15.20;99.90;;;;;;4965687;28;20043;-45
2023/08/02 00:59:30;;;;;;;3.42;1.90;;;15.20;99.90;;;;;;4965131;28;20047;-46
2023/08/02 01:01:56;;;;;;;4.90;2.00;;;15.00;99.90;;;;;;4963474;28;20345;-45
2023/08/02 01:04:23;;;;;;;7.07;2.17;;;15.00;99.90;;;;;;4964883;28;20066;-45
2023/08/02 01:06:58;;;;;;;5.07;2.13;;;15.10;99.90;;;;;;4964150;28;20113;-45
2023/08/02 01:09:49;;;;;;;7.63;2.50;;;15.10;99.90;;;;;;4964319;28;20043;-46
2023/08/02 01:12:17;;;;;;;9.43;2.75;;;15.10;99.90;;;;;;4963034;28;20237;-45
2023/08/02 01:14:49;;;;;;;4.40;2.58;;;15.10;99.90;;;;;;4964144;28;20049;-45
2023/08/02 01:17:15;;;;;;;6.68;2.53;;;15.10;99.90;;;;;;4963853;28;20118;-47
2023/08/02 01:19:42;;;;;;;5.40;2.70;;;15.10;99.90;;;;;;4964896;28;20389;-45
2023/08/02 01:22:08;;;;;;;9.25;3.38;;;15.10;99.90;;;;;;4963499;28;20433;-46
2023/08/02 01:24:35;;;;;;;7.25;3.00;;;15.10;99.90;;;;;;4965207;28;20296;-44
2023/08/02 01:27:07;;;;;;;9.73;3.67;;;15.10;99.90;;;;;;4964412;28;20127;-45
2023/08/02 01:29:36;;;;;;;9.40;4.10;;;15.10;99.90;;;;;;4964302;28;20126;-45
2023/08/02 01:32:03;;;;;;;7.38;4.00;;;15.10;99.90;;;;;;4964690;28;20045;-45
2023/08/02 01:34:30;;;;;;;8.73;3.85;;;15.10;99.90;;;;;;4964275;28;20074;-45
2023/08/02 01:36:55;;;;;;;10.60;4.22;;;15.10;99.90;;;;;;4963738;28;20047;-46
2023/08/02 01:39:21;;;;;;;7.15;3.58;;;15.20;99.90;;;;;;4964685;28;20466;-45
2023/08/02 01:41:47;;;;;;;8.95;4.18;;;15.40;99.90;;;;;;4964520;28;20247;-45
2023/08/02 01:44:12;;;;;;;7.60;3.88;;;15.20;99.90;;;;;;4964023;28;20520;-45
2023/08/02 01:46:38;;;;;;;10.95;4.68;;;15.30;99.90;;;;;;4964169;28;20046;-45
2023/08/02 01:49:03;;;;;;;7.55;4.10;;;15.10;99.90;;;;;;4964212;28;20043;-45
2023/08/02 01:51:29;;;;;;;11.40;4.15;;;15.20;99.90;;;;;;4963652;28;20042;-47
2023/08/02 01:53:55;;;;;;;9.48;4.35;;;15.20;99.90;;;;;;4964077;28;20051;-45
2023/08/02 01:56:20;;;;;;;9.35;4.45;;;15.30;99.90;;;;;;4964435;28;20513;-45
2023/08/02 01:58:46;;;;;;;5.85;4.30;;;15.30;99.90;;;;;;4964099;28;20057;-45
2023/08/02 02:01:11;;;;;;;11.05;4.50;;;15.20;99.90;;;;;;4964360;28;20042;-45
2023/08/02 02:03:37;;;;;;;9.80;4.88;;;15.30;99.90;;;;;;4964199;28;20120;-45
2023/08/02 02:06:03;;;;;;;11.80;4.63;;;15.20;99.90;;;;;;4963196;28;20066;-46
2023/08/02 02:08:28;;;;;;;7.03;4.75;;;15.30;99.90;;;;;;4964140;28;20047;-46
2023/08/02 02:10:54;;;;;;;9.20;4.50;;;15.20;99.90;;;;;;4963478;28;20138;-45
2023/08/02 02:13:24;;;;;;;10.93;5.22;;;15.20;99.90;;;;;;4964088;28;20051;-45
2023/08/02 02:15:50;;;;;;;9.77;4.78;;;15.20;99.90;;;;;;4963998;28;20043;-46
2023/08/02 02:18:16;;;;;;;9.18;4.85;;;15.30;99.90;;;;;;4963843;28;20062;-46
2023/08/02 02:20:41;;;;;;;7.68;4.50;;;15.20;99.90;;;;;;4961561;28;20046;-47
2023/08/02 02:23:07;;;;;;;12.60;5.13;;;15.30;99.90;;;;;;4964076;28;20178;-45
2023/08/02 02:25:33;;;;;;;12.57;4.97;;;15.30;99.90;;;;;;4964099;28;20210;-45
2023/08/02 02:27:59;;;;;;;8.02;4.75;;;15.40;99.90;;;;;;4963533;28;20038;-45
2023/08/02 02:30:24;;;;;;;11.57;4.57;;;15.30;99.90;;;;;;4963849;28;20070;-45
2023/08/02 02:32:50;;;;;;;10.30;4.60;;;15.20;99.90;;;;;;4962482;28;20130;-45
2023/08/02 02:35:16;;;;;;;7.50;4.80;;;15.30;99.90;;;;;;4962633;28;20055;-46
2023/08/02 02:37:42;;;;;;;9.20;4.93;;;15.30;99.90;;;;;;4963981;28;20576;-51
2023/08/02 02:40:09;;;;;;;12.73;5.10;;;15.20;99.90;;;;;;4964171;28;20549;-47
2023/08/02 02:42:38;;;;;;;10.98;4.90;;;15.10;99.90;;;;;;4963609;28;20398;-45
2023/08/02 02:45:04;;;;;;;9.45;5.28;;;15.20;99.90;;;;;;4972255;28;20042;-45
2023/08/02 02:47:30;;;;;;;10.93;5.20;;;15.10;99.90;;;;;;4965858;28;20045;-45
2023/08/02 02:49:55;;;;;;;14.57;5.43;;;15.20;99.90;;;;;;4963819;28;20375;-45
2023/08/02 02:52:21;;;;;;;10.13;5.10;;;15.20;99.90;;;;;;4962946;28;20038;-45
2023/08/02 02:54:47;;;;;;;12.55;4.85;;;15.20;99.90;;;;;;4963540;28;20035;-47
2023/08/02 02:57:12;;;;;;;12.07;5.57;;;15.20;99.90;;;;;;4963365;28;20625;-51
2023/08/02 02:59:38;;;;;;;13.90;4.80;;;15.10;99.90;;;;;;4965517;28;20057;-46
2023/08/02 03:02:04;;;;;;;10.18;4.95;;;15.10;99.90;;;;;;4967002;28;21099;-46
2023/08/02 03:04:29;;;;;;;13.48;5.10;;;15.20;99.90;;;;;;4966945;28;20146;-45
2023/08/02 03:06:55;;;;;;;14.35;4.75;;;15.10;99.90;;;;;;4966816;28;20053;-45
2023/08/02 03:09:20;;;;;;;10.85;4.50;;;15.20;99.90;;;;;;4966537;28;20556;-45
2023/08/02 03:11:46;;;;;;;13.27;5.25;;;15.10;99.90;;;;;;4965635;28;20485;-45
2023/08/02 03:14:12;;;;;;;10.50;4.72;;;15.20;99.90;;;;;;4967465;28;20062;-46
2023/08/02 03:16:38;;;;;;;8.77;4.82;;;15.10;99.90;;;;;;4965113;28;20053;-46
2023/08/02 03:19:04;;;;;;;13.88;5.18;;;15.10;99.90;;;;;;4966900;28;20055;-45
2023/08/02 03:21:30;;;;;;;11.75;5.15;;;15.20;99.90;;;;;;4966065;28;20047;-46
2023/08/02 03:23:55;;;;;;;11.75;5.07;;;15.20;99.90;;;;;;4965703;28;20082;-45
2023/08/02 03:26:21;;;;;;;11.93;4.80;;;15.10;99.90;;;;;;4966207;28;20086;-47
2023/08/02 03:28:48;;;;;;;10.68;4.68;;;15.10;99.90;;;;;;4966700;28;20557;-45
2023/08/02 03:31:13;;;;;;;17.40;5.03;;;15.00;99.90;;;;;;4966732;28;20043;-47
2023/08/02 03:33:39;;;;;;;13.63;4.80;;;15.10;99.90;;;;;;4966528;28;20118;-45
2023/08/02 03:36:05;;;;;;;14.98;5.03;;;15.00;99.90;;;;;;4966189;28;20098;-45
2023/08/02 03:38:31;;;;;;;16.55;5.28;;;15.10;99.90;;;;;;4966305;28;20125;-46
2023/08/02 03:40:57;;;;;;;13.40;5.30;;;15.10;99.90;;;;;;4966382;28;20126;-45
2023/08/02 03:43:22;;;;;;;13.38;4.93;;;15.00;99.90;;;;;;4965623;28;20153;-45
2023/08/02 03:45:49;;;;;;;15.77;5.55;;;15.00;99.90;;;;;;4965108;28;20043;-45
2023/08/02 03:48:16;;;;;;;15.23;5.50;;;15.00;99.90;;;;;;4966458;28;20086;-46
2023/08/02 03:50:42;;;;;;;13.85;5.70;;;15.10;99.90;;;;;;4965463;28;20166;-45
2023/08/02 03:53:07;;;;;;;12.48;4.93;;;15.10;99.90;;;;;;4966100;28;20057;-45
2023/08/02 03:55:33;;;;;;;12.85;5.20;;;15.10;99.90;;;;;;4966579;28;20130;-45
2023/08/02 03:57:58;;;;;;;11.90;5.30;;;15.10;99.90;;;;;;4965391;28;20138;-45
2023/08/02 04:00:24;;;;;;;16.17;5.60;;;15.00;99.90;;;;;;4965702;28;20050;-45
2023/08/02 04:02:50;;;;;;;16.83;5.55;;;15.00;99.90;;;;;;4966183;28;20046;-46
2023/08/02 04:05:15;;;;;;;14.65;5.70;;;15.10;99.90;;;;;;4964971;28;20073;-46
2023/08/02 04:07:41;;;;;;;13.63;5.53;;;15.10;99.90;;;;;;4966000;28;20130;-45
2023/08/02 04:10:07;;;;;;;20.20;6.30;;;15.10;99.90;;;;;;4965953;28;20047;-44
2023/08/02 04:12:33;;;;;;;17.83;5.90;;;15.10;99.90;;;;;;4965768;28;20433;-44
2023/08/02 04:14:58;;;;;;;12.30;5.70;;;15.20;99.90;;;;;;4965234;28;20114;-45
2023/08/02 04:17:27;;;;;;;18.27;6.90;;;15.10;99.90;;;;;;4965882;28;20038;-45
2023/08/02 04:19:53;;;;;;;15.93;6.25;;;15.20;99.90;;;;;;4966127;28;20049;-45
2023/08/02 04:22:18;;;;;;;18.33;6.43;;;15.30;99.90;;;;;;4964125;28;20126;-47
2023/08/02 04:24:44;;;;;;;17.60;6.40;;;15.20;99.90;;;;;;4965584;28;20130;-45
2023/08/02 04:27:09;;;;;;;15.35;6.22;;;15.20;99.90;;;;;;4966019;28;20062;-46
2023/08/02 04:29:35;;;;;;;20.50;7.15;;;15.10;99.90;;;;;;4965424;28;20208;-45
2023/08/02 04:32:01;;;;;;;15.27;6.43;;;15.20;99.90;;;;;;4965121;28;20054;-46
2023/08/02 04:34:26;;;;;;;18.65;6.95;;;15.20;99.90;;;;;;4965458;28;20043;-45
2023/08/02 04:36:52;;;;;;;19.05;6.45;;;15.10;99.90;;;;;;4964819;28;20046;-45
2023/08/02 04:39:18;;;;;;;18.65;6.78;;;15.10;99.90;;;;;;4964747;28;20478;-46
2023/08/02 04:41:43;;;;;;;19.40;6.70;;;15.20;99.90;;;;;;4965923;28;20090;-45
2023/08/02 04:44:09;;;;;;;21.52;7.60;;;15.10;99.90;;;;;;4965187;28;20054;-45
2023/08/02 04:46:35;;;;;;;21.27;6.65;;;15.20;99.90;;;;;;4976205;28;20049;-47
2023/08/02 04:49:00;;;;;;;15.93;6.20;;;15.20;99.90;;;;;;4964406;28;20516;-45
2023/08/02 04:51:26;;;;;;;16.52;6.45;;;15.20;99.90;;;;;;4964866;28;20524;-45
2023/08/02 04:53:51;;;;;;;14.57;6.05;;;15.20;99.90;;;;;;4965015;28;20039;-45
2023/08/02 04:56:17;;;;;;;14.02;6.63;;;15.10;99.90;;;;;;4965000;28;20050;-49
2023/08/02 04:58:43;;;;;;;14.32;6.50;;;15.10;99.90;;;;;;4965817;28;20498;-45
2023/08/02 05:01:09;;;;;;;16.00;6.68;;;15.10;99.90;;;;;;4965064;28;20105;-45
2023/08/02 05:03:35;;;;;;;16.15;7.05;;;15.10;99.90;;;;;;4965006;28;20371;-46
2023/08/02 05:06:03;;;;;;;12.68;6.63;;;15.10;99.90;;;;;;4963637;28;20055;-45
2023/08/02 05:08:31;;;;;;;15.25;6.55;;;15.10;99.90;;;;;;4964804;28;20047;-45
2023/08/02 05:10:57;;;;;;;21.63;6.70;;;15.00;99.90;;;;;;4964507;28;20050;-45
2023/08/02 05:13:23;;;;;;;16.70;7.15;;;15.00;99.90;;;;;;4964174;28;20297;-45
2023/08/02 05:15:50;;;;;;;10.50;6.68;;;15.00;99.90;;;;;;4965213;28;20121;-45
2023/08/02 05:18:16;;;;;;;15.48;6.75;;;15.00;99.90;;;;;;4964673;28;20417;-45
2023/08/02 05:20:41;;;;;;;12.77;6.90;;;15.00;99.90;;;;;;4962358;28;20053;-45
2023/08/02 05:23:07;;;;;;;15.48;6.97;;;15.10;99.90;;;;;;4963283;28;20072;-45
2023/08/02 05:25:34;;;;;;;13.70;6.70;;;15.10;99.90;;;;;;4964627;28;20039;-45
2023/08/02 05:28:00;;;;;;;13.55;7.28;;;15.10;99.90;;;;;;4964103;28;20343;-45
2023/08/02 05:30:30;;;;;;;13.98;6.80;;;15.10;99.90;;;;;;4962827;28;20122;-46
2023/08/02 05:32:56;;;;;;;16.70;7.25;;;15.00;99.90;;;;;;4964439;28;20122;-45
2023/08/02 05:35:23;;;;;;;12.15;7.00;;;15.10;99.90;;;;;;4963594;28;20126;-45
2023/08/02 05:37:49;;;;;;;18.27;7.32;;;15.10;99.90;;;;;;4963765;28;20327;-45
2023/08/02 05:40:15;;;;;;;13.60;6.72;;;15.00;99.90;;;;;;4964542;28;20047;-45
2023/08/02 05:42:41;;;;;;;15.30;7.32;;;15.00;99.90;;;;;;4964399;28;20105;-46
2023/08/02 05:45:07;;;;;;;17.70;7.60;;;14.90;99.90;;;;;;4962826;28;20042;-45
2023/08/02 05:47:34;;;;;;;17.00;8.05;;;15.10;99.90;;;;;;4963950;28;20038;-45
2023/08/02 05:49:59;;;;;;;13.65;7.22;;;15.00;99.90;;;;;;4967187;28;20418;-45
2023/08/02 05:52:25;;;;;;;14.05;7.38;;;15.10;99.90;;;;;;4978056;28;20066;-45
2023/08/02 05:54:50;;;;;;;12.68;6.95;;;15.20;99.90;;;;;;4976708;28;20330;-45
2023/08/02 05:57:16;;;;;;;12.90;6.65;;;15.60;99.90;;;;;;4971476;28;20049;-45
2023/08/02 05:59:42;;;;;;;13.43;6.85;;;15.80;99.90;;;;;;4964427;28;20038;-45
2023/08/02 06:02:08;;;;;;;16.45;7.40;;;15.90;99.90;;;;;;4963409;28;20451;-46
2023/08/02 06:04:39;;;;;;;10.40;6.82;;;15.90;99.90;;;;;;4963557;28;20552;-45
2023/08/02 06:07:05;;;;;;;14.85;7.10;;;15.80;99.90;;;;;;4963838;28;20053;-46
2023/08/02 06:09:31;;;;;;;13.93;6.63;;;15.70;99.90;;;;;;4963556;28;20100;-46
2023/08/02 06:11:56;;;;;;;14.20;6.75;;;15.70;99.90;;;;;;4964044;28;20460;-45
2023/08/02 06:14:22;;;;;;;17.05;7.28;;;15.70;99.90;;;;;;4964026;28;20047;-44
2023/08/02 06:16:48;;;;;;;11.40;6.32;;;15.80;99.90;;;;;;4964266;28;20038;-45
2023/08/02 06:19:14;;;;;;;13.05;6.60;;;15.90;99.90;;;;;;4963945;28;20047;-45
2023/08/02 06:21:40;;;;;;;12.13;6.97;;;16.10;99.90;;;;;;4963166;28;20046;-45
2023/08/02 06:24:06;;;;;;;10.93;5.85;;;16.40;99.90;;;;;;4964002;28;20047;-46
2023/08/02 06:26:32;;;;;;;9.45;5.82;;;16.70;99.90;;;;;;4963372;28;20326;-45
2023/08/02 06:28:57;;;;;;;12.02;5.70;;;16.60;99.90;;;;;;4963997;28;20039;-45
2023/08/02 06:31:23;;;;;;;12.25;6.30;;;16.40;99.90;;;;;;4962271;28;20055;-45
2023/08/02 06:33:49;;;;;;;12.70;6.22;;;16.30;99.90;;;;;;4967742;28;20057;-48
2023/08/02 06:36:15;;;;;;;11.02;6.28;;;16.20;99.90;;;;;;4972169;28;20750;-45
2023/08/02 06:38:40;;;;;;;12.63;6.28;;;16.10;99.90;;;;;;4974454;28;20061;-45
2023/08/02 06:41:06;;;;;;;10.02;6.07;;;16.00;99.90;;;;;;4967611;28;20512;-46
2023/08/02 06:43:32;;;;;;;14.13;6.30;;;16.00;99.90;;;;;;4967627;28;20489;-45
2023/08/02 06:45:58;;;;;;;13.45;6.40;;;16.10;99.90;;;;;;4969730;28;20074;-48
2023/08/02 06:48:25;;;;;;;9.63;5.93;;;16.10;99.90;;;;;;4975801;28;20196;-45
2023/08/02 06:50:52;;;;;;;13.43;6.53;;;16.10;99.90;;;;;;4967160;28;20093;-44
2023/08/02 06:53:18;;;;;;;13.90;6.78;;;16.10;99.90;;;;;;4985352;28;20039;-47
2023/08/02 06:55:44;;;;;;;10.23;6.38;;;16.20;99.90;;;;;;4979954;28;20381;-45
2023/08/02 06:58:09;;;;;;;10.52;6.03;;;16.30;99.90;;;;;;4967290;28;20078;-45
2023/08/02 07:00:35;;;;;;;11.85;7.05;;;16.20;99.90;;;;;;4966911;28;20145;-45
2023/08/02 07:03:02;;;;;;;13.32;6.25;;;16.20;99.90;;;;;;4966831;28;20521;-44
2023/08/02 07:05:29;;;;;;;11.30;5.53;;;16.30;99.90;;;;;;4966146;28;20053;-45
2023/08/02 07:07:56;;;;;;;11.50;5.65;;;16.30;99.90;;;;;;4966685;28;20274;-45
2023/08/02 07:10:23;;;;;;;10.63;5.90;;;16.50;99.90;;;;;;4967570;28;20049;-45
2023/08/02 07:12:49;;;;;;;13.50;5.68;;;16.40;99.90;;;;;;4965926;28;20043;-44
2023/08/02 07:15:16;;;;;;;11.25;5.70;;;16.50;99.90;;;;;;4966278;28;20054;-48
2023/08/02 07:17:43;;;;;;;10.60;6.13;;;16.50;99.90;;;;;;4966870;28;20050;-46
2023/08/02 07:20:12;;;;;;;15.25;5.88;;;16.50;99.90;;;;;;4966807;28;20054;-44
2023/08/02 07:22:40;;;;;;;10.88;5.95;;;16.50;99.90;;;;;;4966707;28;20049;-45
2023/08/02 07:25:06;;;;;;;11.95;5.70;;;16.40;99.90;;;;;;4966689;28;20097;-45
2023/08/02 07:27:32;;;;;;;11.25;5.80;;;16.40;99.90;;;;;;4966501;28;20074;-45
2023/08/02 07:29:58;;;;;;;12.05;5.22;;;16.40;99.90;;;;;;4965712;28;20054;-46
2023/08/02 07:32:24;;;;;;;12.20;5.88;;;16.50;99.90;;;;;;4966551;28;20105;-47
2023/08/02 07:34:50;;;;;;;12.23;5.63;;;16.50;99.90;;;;;;4966012;28;20058;-45
2023/08/02 07:37:16;;;;;;;12.07;5.82;;;16.50;99.90;;;;;;4966740;28;20046;-47
2023/08/02 07:39:41;;;;;;;9.98;5.32;;;16.50;99.90;;;;;;4966055;28;20070;-45
2023/08/02 07:42:07;;;;;;;11.07;5.00;;;16.60;99.90;;;;;;4966263;28;20395;-45
2023/08/02 07:44:35;;;;;;;10.73;4.38;;;16.60;99.90;;;;;;4965432;28;20085;-47
2023/08/02 07:47:00;;;;;;;11.50;4.75;;;16.60;99.90;;;;;;4966228;28;20043;-45
2023/08/02 07:49:26;;;;;;;9.93;4.85;;;16.70;99.90;;;;;;4965575;28;20054;-45
2023/08/02 07:51:53;;;;;;;9.27;4.93;;;16.70;99.90;;;;;;4966429;28;20035;-45
2023/08/02 07:54:19;;;;;;;9.77;4.13;;;16.70;99.90;;;;;;4966262;28;20050;-46
2023/08/02 07:56:44;;;;;;;11.18;4.70;;;16.80;99.90;;;;;;4965722;28;20057;-45
2023/08/02 07:59:10;;;;;;;7.97;4.13;;;16.80;99.90;;;;;;4965694;28;20089;-45
2023/08/02 08:01:36;;;;;;;9.32;4.32;;;16.80;99.90;;;;;;4966070;28;20127;-46
2023/08/02 08:04:01;;;;;;;8.73;4.30;;;16.80;99.90;;;;;;4973173;28;20062;-46
2023/08/02 08:06:27;;;;;;;9.52;4.03;;;16.80;99.90;;;;;;4984412;28;20054;-45
2023/08/02 08:08:52;;;;;;;11.70;4.05;;;16.80;99.90;;;;;;4985832;28;20057;-45
2023/08/02 08:11:18;;;;;;;10.40;4.15;;;16.80;99.90;;;;;;4985227;28;20461;-45
2023/08/02 08:13:44;;;;;;;10.80;4.50;;;16.80;99.90;;;;;;4984670;28;20533;-45
2023/08/02 08:16:10;;;;;;;9.25;4.10;;;16.80;99.90;;;;;;4982082;28;20093;-46
2023/08/02 08:18:36;;;;;;;9.02;4.10;;;16.80;99.90;;;;;;4966246;28;20066;-45
2023/08/02 08:21:03;;;;;;;8.95;4.28;;;16.70;99.90;;;;;;4964710;28;20125;-45
2023/08/02 08:23:32;;;;;;;8.65;4.53;;;16.70;99.90;;;;;;4974384;28;20401;-47
2023/08/02 08:25:57;;;;;;;7.97;4.28;;;16.70;99.90;;;;;;4966846;28;20046;-45
2023/08/02 08:28:23;;;;;;;10.82;4.47;;;16.60;99.90;;;;;;4965443;28;20047;-46
2023/08/02 08:30:49;;;;;;;10.15;4.35;;;16.50;99.90;;;;;;4965396;28;20047;-46
2023/08/02 08:33:14;;;;;;;10.80;4.47;;;16.60;99.90;;;;;;4964397;28;20514;-46
2023/08/02 08:35:40;;;;;;;11.25;4.57;;;16.50;99.90;;;;;;4964875;28;20077;-45
2023/08/02 08:38:06;;;;;;;10.98;4.72;;;16.50;99.90;;;;;;4965204;28;20109;-45
2023/08/02 08:40:32;;;;;;;7.75;4.78;;;16.50;99.90;;;;;;4965408;28;20053;-46
2023/08/02 08:42:58;;;;;;;9.18;4.95;;;16.50;99.90;;;;;;4965414;28;20057;-48
2023/08/02 08:45:25;;;;;;;12.05;4.65;;;16.50;99.90;;;;;;4965363;28;20039;-45
2023/08/02 08:47:52;;;;;;;9.75;4.60;;;16.40;99.90;;;;;;4965586;28;20271;-46
2023/08/02 08:50:20;;;;;;;9.77;4.80;;;16.30;99.90;;;;;;4964551;28;20105;-47
2023/08/02 08:52:47;;;;;;;8.82;4.95;;;16.10;99.90;;;;;;4964721;28;20101;-46
2023/08/02 08:55:14;;;;;;;9.30;5.22;;;16.10;99.90;;;;;;4965137;28;20043;-48
2023/08/02 08:57:41;;;;;;;13.98;6.28;;;16.10;99.90;;;;;;4964630;28;20402;-45
2023/08/02 09:00:11;;;;;;;11.80;5.80;;;16.10;99.90;;;;;;4964914;28;20043;-46
2023/08/02 09:02:41;;;;;;;13.23;5.68;;;16.00;99.90;;;;;;4964990;28;20042;-45
2023/08/02 09:05:08;;;;;;;15.45;6.38;;;15.90;99.90;;;;;;4964040;28;20121;-45
2023/08/02 09:07:34;;;;;;;10.02;5.45;;;15.80;99.90;;;;;;4964245;28;20418;-45
2023/08/02 09:10:00;;;;;;;11.10;5.95;;;15.80;99.90;;;;;;4964797;28;20047;-46
2023/08/02 09:12:27;;;;;;;17.42;6.05;;;15.70;99.90;;;;;;4965243;28;20436;-44
2023/08/02 09:15:04;;;;;;;12.07;6.13;;;15.60;99.90;;;;;;4964536;28;20054;-45
2023/08/02 09:17:51;;;;;;;10.48;5.78;;;15.60;99.90;;;;;;4964885;28;20054;-45
2023/08/02 09:20:23;;;;;;;10.90;5.70;;;15.50;99.90;;;;;;4963326;28;20038;-46
2023/08/02 09:22:49;;;;;;;9.88;5.25;;;15.50;99.90;;;;;;4964701;28;20042;-45
2023/08/02 09:25:27;;;;;;;9.45;5.60;;;15.50;99.90;;;;;;4965222;28;20121;-45
2023/08/02 09:27:54;;;;;;;21.42;5.30;;;15.50;99.90;;;;;;4964008;28;20354;-45
2023/08/02 09:30:28;;;;;;;10.32;5.63;;;15.50;99.90;;;;;;4964626;28;20055;-46
2023/08/02 09:33:05;;;;;;;12.35;5.95;;;15.60;99.90;;;;;;4964870;28;20047;-45
2023/08/02 09:35:47;;;;;;;11.68;5.72;;;15.60;99.90;;;;;;4963857;28;20105;-47
2023/08/02 09:38:13;;;;;;;9.45;5.22;;;15.50;99.90;;;;;;4964300;28;20050;-46
2023/08/02 09:40:40;;;;;;;11.90;6.00;;;15.60;99.90;;;;;;4964214;28;20047;-45
2023/08/02 09:43:09;;;;;;;10.23;5.50;;;15.60;99.90;;;;;;4964095;28;20113;-45
2023/08/02 09:45:36;;;;;;;13.20;5.85;;;15.70;99.90;;;;;;4964455;28;20057;-44
2023/08/02 09:48:02;;;;;;;10.95;5.15;;;15.70;99.90;;;;;;4963841;28;20456;-45
2023/08/02 09:50:29;;;;;;;12.00;5.43;;;15.70;99.90;;;;;;4963906;28;20042;-47
2023/08/02 09:52:55;;;;;;;11.55;5.28;;;15.80;99.90;;;;;;4964187;28;20042;-45
2023/08/02 09:55:21;;;;;;;11.48;5.90;;;15.80;99.90;;;;;;4963751;28;20066;-45
2023/08/02 09:57:48;;;;;;;10.68;5.82;;;15.80;99.90;;;;;;4964776;28;20398;-46
2023/08/02 10:00:15;;;;;;;10.70;6.38;;;15.80;99.90;;;;;;4965414;28;20046;-45
2023/08/02 10:02:41;;;;;;;10.95;5.90;;;15.90;99.90;;;;;;4963589;28;20061;-46
2023/08/02 10:05:12;;;;;;;11.20;6.25;;;16.00;99.90;;;;;;4963042;28;20042;-44
2023/08/02 10:07:53;;;;;;;8.57;5.97;;;16.00;99.90;;;;;;4963699;28;20473;-44
2023/08/02 10:10:24;;;;;;;11.70;6.38;;;16.10;99.90;;;;;;4971247;28;20054;-45
2023/08/02 10:13:01;;;;;;;13.80;6.63;;;16.10;99.90;;;;;;4983554;28;20397;-44
2023/08/02 10:15:27;;;;;;;12.10;6.88;;;16.10;99.90;;;;;;4983297;28;20054;-45
2023/08/02 10:17:55;;;;;;;12.15;6.53;;;16.10;99.90;;;;;;4983224;28;20326;-44
2023/08/02 10:20:21;;;;;;;9.85;6.82;;;16.20;99.90;;;;;;4977475;28;20129;-46
2023/08/02 10:22:49;;;;;;;11.23;6.35;;;16.20;99.90;;;;;;4962383;28;20043;-46
2023/08/02 10:25:16;;;;;;;10.60;6.93;;;16.30;99.90;;;;;;4962807;28;20078;-45
2023/08/02 10:27:44;;;;;;;12.60;6.32;;;16.30;99.90;;;;;;4964089;28;20051;-45
2023/08/02 10:30:11;;;;;;;9.75;6.13;;;16.30;99.90;;;;;;4963485;28;20054;-45
2023/08/02 10:32:37;;;;;;;11.45;6.50;;;16.40;99.90;;;;;;4962079;28;20522;-45
2023/08/02 10:35:03;;;;;;;9.38;6.18;;;16.30;99.90;;;;;;4963410;28;20177;-45
2023/08/02 10:37:54;;;;;;;10.60;6.07;;;16.30;99.90;;;;;;4964461;28;20089;-45
2023/08/02 10:40:21;;;;;;;9.40;5.78;;;16.40;99.90;;;;;;4963787;28;20046;-45
2023/08/02 10:43:13;;;;;;;8.70;5.45;;;16.40;99.90;;;;;;4963425;28;20134;-47
2023/08/02 10:45:39;;;;;;;9.00;5.80;;;16.40;99.90;;;;;;4963912;28;20130;-45
2023/08/02 10:48:27;;;;;;;8.18;5.75;;;16.40;99.90;;;;;;4982676;28;20729;-45
2023/08/02 10:50:53;;;;;;;7.43;5.00;;;16.40;99.90;;;;;;4981163;28;20097;-45
2023/08/02 10:53:19;;;;;;;7.35;4.93;;;16.30;99.90;;;;;;4982792;28;20046;-45
2023/08/02 10:56:05;;;;;;;8.10;5.00;;;16.30;99.90;;;;;;4978789;28;20060;-45
2023/08/02 10:58:51;;;;;;;6.93;5.28;;;16.40;99.90;;;;;;4981520;28;20070;-44
2023/08/02 11:01:18;;;;;;;8.02;5.60;;;16.50;99.90;;;;;;4963521;28;20046;-44
2023/08/02 11:03:44;;;;;;;7.80;4.82;;;16.40;99.90;;;;;;4963637;28;20038;-45
2023/08/02 11:06:27;;;;;;;10.50;5.25;;;16.60;99.90;;;;;;4975123;28;20062;-44
2023/08/02 11:08:52;;;;;;;6.38;4.55;;;16.60;99.90;;;;;;4974804;28;20042;-45
2023/08/02 11:11:32;;;;;;;6.63;4.15;;;16.50;99.90;;;;;;4974195;28;20441;-44
2023/08/02 11:13:57;;;;;;;7.68;4.07;;;16.50;99.90;;;;;;4962779;28;20449;-47
2023/08/02 11:16:23;;;;;;;6.13;4.35;;;16.40;99.90;;;;;;4968396;28;20229;-45
2023/08/02 11:18:50;;;;;;;5.88;4.10;;;16.40;99.90;;;;;;4982307;28;20382;-46
2023/08/02 11:21:16;;;;;;;4.90;3.42;;;16.50;99.90;;;;;;4985266;28;20050;-44
2023/08/02 11:23:42;;;;;;;4.63;3.85;;;16.50;99.90;;;;;;4986155;28;20042;-44
2023/08/02 11:26:17;;;;;;;4.55;3.35;;;16.60;99.90;;;;;;4985839;28;20053;-45
2023/08/02 11:28:48;;;;;;;3.92;3.42;;;16.50;99.90;;;;;;4985449;28;20055;-44
2023/08/02 11:31:14;;;;;;;5.25;3.50;;;16.70;99.90;;;;;;4982254;28;20042;-46
2023/08/02 11:33:40;;;;;;;4.43;2.63;;;16.60;99.90;;;;;;4972749;28;20069;-44
2023/08/02 11:36:06;;;;;;;4.50;2.90;;;16.70;99.90;;;;;;4986879;28;20137;-44
2023/08/02 11:38:32;;;;;;;3.67;2.78;;;16.70;99.90;;;;;;4988412;28;20510;-44
2023/08/02 11:40:58;;;;;;;3.97;3.08;;;16.60;99.90;;;;;;4982400;28;20092;-44
2023/08/02 11:43:38;;;;;;;4.97;2.55;;;16.70;99.90;;;;;;4974329;28;20043;-45
2023/08/02 11:46:13;;;;;;;4.32;2.70;;;16.70;99.90;;;;;;4966707;28;20061;-44
2023/08/02 11:48:39;;;;;;;5.47;2.95;;;16.70;99.90;;;;;;4966131;28;20082;-44
2023/08/02 11:51:05;;;;;;;4.30;2.78;;;16.70;99.90;;;;;;4972480;28;20307;-44
2023/08/02 11:53:30;;;;;;;3.88;2.63;;;16.60;99.90;;;;;;4974895;28;20515;-44
2023/08/02 11:55:56;;;;;;;2.92;2.28;;;16.70;99.90;;;;;;4975472;28;20260;-45
2023/08/02 11:58:22;;;;;;;3.65;2.40;;;16.80;99.90;;;;;;4975175;28;20054;-44
2023/08/02 12:00:48;;;;;;;3.25;2.25;;;17.00;99.90;;;;;;4974219;28;20097;-44
2023/08/02 12:03:15;;;;;;;3.72;1.90;;;16.90;99.90;;;;;;4974339;28;20126;-44
2023/08/02 12:05:43;;;;;;;3.15;1.77;;;16.90;99.90;;;;;;4964384;28;20122;-45
2023/08/02 12:08:14;;;;;;;2.05;1.40;;;16.90;99.90;;;;;;4965961;28;20397;-45
2023/08/02 12:10:41;;;;;;;3.03;1.73;;;17.00;99.90;;;;;;4965720;28;20053;-44
2023/08/02 12:13:08;;;;;;;2.17;1.48;;;17.00;99.90;;;;;;4965788;28;20093;-45
2023/08/02 12:15:35;;;;;;;2.42;1.45;;;17.00;99.90;;;;;;4966219;28;20047;-44
2023/08/02 12:18:05;;;;;;;2.95;1.50;;;17.10;99.90;;;;;;4965622;28;20050;-44
2023/08/02 12:20:35;;;;;;;2.22;1.52;;;17.10;99.90;;;;;;4964568;28;20089;-44
2023/08/02 12:23:01;;;;;;;2.10;1.50;;;17.00;99.90;;;;;;4965982;28;20301;-44
2023/08/02 12:25:40;;;;;;;2.58;1.52;;;17.00;99.90;;;;;;4965803;28;20043;-45
2023/08/02 12:28:07;;;;;;;2.35;1.50;;;17.10;99.90;;;;;;4965537;28;20517;-45
2023/08/02 12:30:33;;;;;;;2.25;1.30;;;17.20;99.90;;;;;;4964874;28;20105;-44
2023/08/02 12:32:59;;;;;;;3.10;1.60;;;17.30;99.90;;;;;;4965782;28;20145;-47
2023/08/02 12:35:25;;;;;;;2.85;1.60;;;17.50;99.90;;;;;;4964198;28;20061;-45
2023/08/02 12:37:51;;;;;;;2.40;1.30;;;17.60;99.90;;;;;;4965715;28;20267;-44
2023/08/02 12:40:17;;;;;;;1.67;1.23;;;17.70;99.90;;;;;;4965217;28;20116;-44